sensor_id;sensor_type;location;lat;lon;timestamp;P1;durP1;ratioP1;P2;durP2;ratioP2
21754;SDS011;11039;50.028;19.938;2022-10-31T00:01:40;25.75;;;18.88;;
21754;SDS011;11039;50.028;19.938;2022-10-31T00:04:06;29.35;;;19.15;;
21754;SDS011;11039;50.028;19.938;2022-10-31T00:06:32;25.98;;;19.42;;
21754;SDS011;11039;50.028;19.938;2022-10-31T00:08:59;26.15;;;18.98;;
21754;SDS011;11039;50.028;19.938;2022-10-31T00:11:26;25.80;;;18.67;;
21754;SDS011;11039;50.028;19.938;2022-10-31T00:13:52;23.13;;;18.35;;
21754;SDS011;11039;50.028;19.938;2022-10-31T00:16:19;28.80;;;19.75;;
21754;SDS011;11039;50.028;19.938;2022-10-31T00:18:49;24.13;;;18.48;;
21754;SDS011;11039;50.028;19.938;2022-10-31T00:21:15;27.52;;;18.80;;
21754;SDS011;11039;50.028;19.938;2022-10-31T00:23:41;27.17;;;19.00;;
21754;SDS011;11039;50.028;19.938;2022-10-31T00:26:07;24.73;;;19.20;;
21754;SDS011;11039;50.028;19.938;2022-10-31T00:28:33;27.52;;;19.67;;
21754;SDS011;11039;50.028;19.938;2022-10-31T00:31:03;25.02;;;18.27;;
21754;SDS011;11039;50.028;19.938;2022-10-31T00:33:30;26.27;;;19.15;;
21754;SDS011;11039;50.028;19.938;2022-10-31T00:35:56;24.58;;;19.02;;
21754;SDS011;11039;50.028;19.938;2022-10-31T00:38:22;22.20;;;17.05;;
21754;SDS011;11039;50.028;19.938;2022-10-31T00:40:48;23.33;;;18.00;;
21754;SDS011;11039;50.028;19.938;2022-10-31T00:43:14;22.27;;;16.77;;
21754;SDS011;11039;50.028;19.938;2022-10-31T00:45:41;24.88;;;18.08;;
21754;SDS011;11039;50.028;19.938;2022-10-31T00:48:07;22.88;;;18.85;;
21754;SDS011;11039;50.028;19.938;2022-10-31T00:50:33;26.42;;;18.13;;
21754;SDS011;11039;50.028;19.938;2022-10-31T00:52:59;23.90;;;17.80;;
21754;SDS011;11039;50.028;19.938;2022-10-31T00:55:25;23.58;;;18.85;;
21754;SDS011;11039;50.028;19.938;2022-10-31T00:57:51;21.45;;;16.95;;
21754;SDS011;11039;50.028;19.938;2022-10-31T01:00:17;23.67;;;17.63;;
21754;SDS011;11039;50.028;19.938;2022-10-31T01:02:43;23.73;;;17.42;;
21754;SDS011;11039;50.028;19.938;2022-10-31T01:05:09;25.35;;;17.88;;
21754;SDS011;11039;50.028;19.938;2022-10-31T01:07:36;22.90;;;17.60;;
21754;SDS011;11039;50.028;19.938;2022-10-31T01:10:03;21.60;;;16.67;;
21754;SDS011;11039;50.028;19.938;2022-10-31T01:12:29;24.60;;;17.70;;
21754;SDS011;11039;50.028;19.938;2022-10-31T01:14:55;21.38;;;16.67;;
21754;SDS011;11039;50.028;19.938;2022-10-31T01:17:21;21.88;;;16.42;;
21754;SDS011;11039;50.028;19.938;2022-10-31T01:19:47;24.60;;;17.60;;
21754;SDS011;11039;50.028;19.938;2022-10-31T01:22:13;23.83;;;16.55;;
21754;SDS011;11039;50.028;19.938;2022-10-31T01:24:39;19.67;;;16.48;;
21754;SDS011;11039;50.028;19.938;2022-10-31T01:27:05;20.80;;;16.52;;
21754;SDS011;11039;50.028;19.938;2022-10-31T01:29:31;23.30;;;16.65;;
21754;SDS011;11039;50.028;19.938;2022-10-31T01:31:57;22.73;;;16.95;;
21754;SDS011;11039;50.028;19.938;2022-10-31T01:34:23;20.10;;;16.30;;
21754;SDS011;11039;50.028;19.938;2022-10-31T01:36:49;22.85;;;16.15;;
21754;SDS011;11039;50.028;19.938;2022-10-31T01:39:16;22.45;;;16.85;;
21754;SDS011;11039;50.028;19.938;2022-10-31T01:41:45;20.05;;;16.25;;
21754;SDS011;11039;50.028;19.938;2022-10-31T01:49:14;20.67;;;16.10;;
21754;SDS011;11039;50.028;19.938;2022-10-31T01:51:53;19.92;;;15.70;;
21754;SDS011;11039;50.028;19.938;2022-10-31T01:54:21;20.75;;;15.80;;
21754;SDS011;11039;50.028;19.938;2022-10-31T01:56:48;20.40;;;16.02;;
21754;SDS011;11039;50.028;19.938;2022-10-31T01:59:16;21.05;;;15.98;;
21754;SDS011;11039;50.028;19.938;2022-10-31T02:01:44;20.70;;;15.55;;
21754;SDS011;11039;50.028;19.938;2022-10-31T02:04:10;19.83;;;15.25;;
21754;SDS011;11039;50.028;19.938;2022-10-31T02:09:34;19.83;;;16.02;;
21754;SDS011;11039;50.028;19.938;2022-10-31T02:12:02;18.50;;;15.27;;
21754;SDS011;11039;50.028;19.938;2022-10-31T02:14:28;20.75;;;15.90;;
21754;SDS011;11039;50.028;19.938;2022-10-31T02:16:55;21.92;;;15.90;;
21754;SDS011;11039;50.028;19.938;2022-10-31T02:19:26;18.92;;;14.90;;
21754;SDS011;11039;50.028;19.938;2022-10-31T02:22:05;19.58;;;15.75;;
21754;SDS011;11039;50.028;19.938;2022-10-31T02:24:37;18.45;;;14.68;;
21754;SDS011;11039;50.028;19.938;2022-10-31T02:37:11;21.80;;;15.25;;
21754;SDS011;11039;50.028;19.938;2022-10-31T02:39:42;19.70;;;14.88;;
21754;SDS011;11039;50.028;19.938;2022-10-31T02:42:14;20.33;;;15.18;;
21754;SDS011;11039;50.028;19.938;2022-10-31T02:44:44;18.88;;;14.65;;
21754;SDS011;11039;50.028;19.938;2022-10-31T02:47:11;21.90;;;14.35;;
21754;SDS011;11039;50.028;19.938;2022-10-31T02:52:21;20.50;;;14.95;;
21754;SDS011;11039;50.028;19.938;2022-10-31T02:54:49;20.08;;;14.38;;
21754;SDS011;11039;50.028;19.938;2022-10-31T02:57:15;19.20;;;15.15;;
21754;SDS011;11039;50.028;19.938;2022-10-31T02:59:45;18.52;;;14.50;;
21754;SDS011;11039;50.028;19.938;2022-10-31T03:12:55;22.67;;;15.40;;
21754;SDS011;11039;50.028;19.938;2022-10-31T03:15:34;18.42;;;14.57;;
21754;SDS011;11039;50.028;19.938;2022-10-31T03:18:20;23.05;;;14.80;;
21754;SDS011;11039;50.028;19.938;2022-10-31T03:20:52;18.50;;;14.63;;
21754;SDS011;11039;50.028;19.938;2022-10-31T03:23:19;18.00;;;14.60;;
21754;SDS011;11039;50.028;19.938;2022-10-31T03:25:48;20.63;;;14.98;;
21754;SDS011;11039;50.028;19.938;2022-10-31T03:28:15;18.58;;;15.07;;
21754;SDS011;11039;50.028;19.938;2022-10-31T03:30:42;22.80;;;15.68;;
21754;SDS011;11039;50.028;19.938;2022-10-31T03:33:10;19.52;;;14.73;;
21754;SDS011;11039;50.028;19.938;2022-10-31T03:35:37;17.90;;;14.82;;
21754;SDS011;11039;50.028;19.938;2022-10-31T03:38:06;19.50;;;15.13;;
21754;SDS011;11039;50.028;19.938;2022-10-31T03:40:32;17.42;;;14.07;;
21754;SDS011;11039;50.028;19.938;2022-10-31T03:43:03;19.58;;;15.05;;
21754;SDS011;11039;50.028;19.938;2022-10-31T03:45:32;19.77;;;15.60;;
21754;SDS011;11039;50.028;19.938;2022-10-31T03:48:01;18.33;;;14.50;;
21754;SDS011;11039;50.028;19.938;2022-10-31T03:50:30;20.92;;;15.25;;
21754;SDS011;11039;50.028;19.938;2022-10-31T03:53:02;21.23;;;15.25;;
21754;SDS011;11039;50.028;19.938;2022-10-31T03:55:40;19.00;;;14.90;;
21754;SDS011;11039;50.028;19.938;2022-10-31T03:58:27;20.48;;;15.35;;
21754;SDS011;11039;50.028;19.938;2022-10-31T04:00:54;21.27;;;16.15;;
21754;SDS011;11039;50.028;19.938;2022-10-31T04:03:29;18.17;;;15.50;;
21754;SDS011;11039;50.028;19.938;2022-10-31T04:05:56;19.33;;;15.25;;
21754;SDS011;11039;50.028;19.938;2022-10-31T04:08:25;19.42;;;15.80;;
21754;SDS011;11039;50.028;19.938;2022-10-31T04:10:53;19.13;;;15.60;;
21754;SDS011;11039;50.028;19.938;2022-10-31T04:13:24;20.23;;;15.50;;
21754;SDS011;11039;50.028;19.938;2022-10-31T04:15:52;19.23;;;15.18;;
21754;SDS011;11039;50.028;19.938;2022-10-31T04:18:19;19.75;;;14.98;;
21754;SDS011;11039;50.028;19.938;2022-10-31T04:20:46;20.52;;;16.00;;
21754;SDS011;11039;50.028;19.938;2022-10-31T04:25:41;21.98;;;15.40;;
21754;SDS011;11039;50.028;19.938;2022-10-31T04:28:07;20.77;;;16.10;;
21754;SDS011;11039;50.028;19.938;2022-10-31T04:30:33;20.45;;;16.02;;
21754;SDS011;11039;50.028;19.938;2022-10-31T04:32:59;21.60;;;15.85;;
21754;SDS011;11039;50.028;19.938;2022-10-31T04:35:25;19.88;;;15.77;;
21754;SDS011;11039;50.028;19.938;2022-10-31T04:37:51;21.52;;;15.43;;
21754;SDS011;11039;50.028;19.938;2022-10-31T04:40:17;19.42;;;15.93;;
21754;SDS011;11039;50.028;19.938;2022-10-31T04:42:43;19.17;;;15.18;;
21754;SDS011;11039;50.028;19.938;2022-10-31T04:45:09;18.02;;;14.82;;
21754;SDS011;11039;50.028;19.938;2022-10-31T04:47:35;18.70;;;15.85;;
21754;SDS011;11039;50.028;19.938;2022-10-31T04:50:02;18.83;;;15.20;;
21754;SDS011;11039;50.028;19.938;2022-10-31T04:52:28;19.63;;;15.35;;
21754;SDS011;11039;50.028;19.938;2022-10-31T04:54:54;19.38;;;15.07;;
21754;SDS011;11039;50.028;19.938;2022-10-31T04:57:20;20.40;;;15.30;;
21754;SDS011;11039;50.028;19.938;2022-10-31T04:59:46;23.08;;;15.77;;
21754;SDS011;11039;50.028;19.938;2022-10-31T05:02:12;18.52;;;15.35;;
21754;SDS011;11039;50.028;19.938;2022-10-31T05:04:38;18.50;;;14.90;;
21754;SDS011;11039;50.028;19.938;2022-10-31T05:07:04;18.60;;;14.82;;
21754;SDS011;11039;50.028;19.938;2022-10-31T05:09:30;21.42;;;15.32;;
21754;SDS011;11039;50.028;19.938;2022-10-31T05:11:56;20.30;;;15.10;;
21754;SDS011;11039;50.028;19.938;2022-10-31T05:14:22;19.33;;;14.68;;
21754;SDS011;11039;50.028;19.938;2022-10-31T05:16:48;18.25;;;14.15;;
21754;SDS011;11039;50.028;19.938;2022-10-31T05:19:14;18.92;;;15.05;;
21754;SDS011;11039;50.028;19.938;2022-10-31T05:21:40;18.98;;;14.57;;
21754;SDS011;11039;50.028;19.938;2022-10-31T05:24:06;20.85;;;14.45;;
21754;SDS011;11039;50.028;19.938;2022-10-31T05:26:32;17.98;;;14.40;;
21754;SDS011;11039;50.028;19.938;2022-10-31T05:28:58;16.98;;;13.90;;
21754;SDS011;11039;50.028;19.938;2022-10-31T05:31:24;18.55;;;14.45;;
21754;SDS011;11039;50.028;19.938;2022-10-31T05:33:50;22.75;;;15.32;;
21754;SDS011;11039;50.028;19.938;2022-10-31T05:36:16;18.15;;;14.18;;
21754;SDS011;11039;50.028;19.938;2022-10-31T05:38:42;16.83;;;14.07;;
21754;SDS011;11039;50.028;19.938;2022-10-31T05:41:09;18.60;;;14.82;;
21754;SDS011;11039;50.028;19.938;2022-10-31T05:43:35;23.38;;;14.75;;
21754;SDS011;11039;50.028;19.938;2022-10-31T05:46:01;17.60;;;13.90;;
21754;SDS011;11039;50.028;19.938;2022-10-31T05:48:27;18.60;;;14.50;;
21754;SDS011;11039;50.028;19.938;2022-10-31T05:50:53;19.58;;;14.60;;
21754;SDS011;11039;50.028;19.938;2022-10-31T05:53:19;17.63;;;14.45;;
21754;SDS011;11039;50.028;19.938;2022-10-31T05:55:45;18.23;;;14.75;;
21754;SDS011;11039;50.028;19.938;2022-10-31T05:58:11;19.33;;;14.95;;
21754;SDS011;11039;50.028;19.938;2022-10-31T06:00:37;18.02;;;14.82;;
21754;SDS011;11039;50.028;19.938;2022-10-31T06:03:06;16.92;;;14.18;;
21754;SDS011;11039;50.028;19.938;2022-10-31T06:05:32;17.98;;;14.07;;
21754;SDS011;11039;50.028;19.938;2022-10-31T06:07:58;21.33;;;14.15;;
21754;SDS011;11039;50.028;19.938;2022-10-31T06:10:24;19.58;;;13.48;;
21754;SDS011;11039;50.028;19.938;2022-10-31T06:12:50;19.77;;;13.40;;
21754;SDS011;11039;50.028;19.938;2022-10-31T06:15:17;21.23;;;13.88;;
21754;SDS011;11039;50.028;19.938;2022-10-31T06:17:43;16.80;;;13.10;;
21754;SDS011;11039;50.028;19.938;2022-10-31T06:20:09;16.98;;;13.80;;
21754;SDS011;11039;50.028;19.938;2022-10-31T06:22:35;18.75;;;13.50;;
21754;SDS011;11039;50.028;19.938;2022-10-31T06:25:01;18.08;;;13.38;;
21754;SDS011;11039;50.028;19.938;2022-10-31T06:27:27;16.30;;;13.25;;
21754;SDS011;11039;50.028;19.938;2022-10-31T06:29:53;17.73;;;14.15;;
21754;SDS011;11039;50.028;19.938;2022-10-31T06:32:20;17.10;;;13.50;;
21754;SDS011;11039;50.028;19.938;2022-10-31T06:34:46;15.70;;;13.10;;
21754;SDS011;11039;50.028;19.938;2022-10-31T06:37:15;21.05;;;14.68;;
21754;SDS011;11039;50.028;19.938;2022-10-31T06:39:41;17.40;;;13.10;;
21754;SDS011;11039;50.028;19.938;2022-10-31T06:42:07;19.13;;;13.15;;
21754;SDS011;11039;50.028;19.938;2022-10-31T06:44:33;17.10;;;13.38;;
21754;SDS011;11039;50.028;19.938;2022-10-31T06:46:59;19.25;;;12.88;;
21754;SDS011;11039;50.028;19.938;2022-10-31T06:49:25;18.00;;;13.50;;
21754;SDS011;11039;50.028;19.938;2022-10-31T06:51:51;17.85;;;12.88;;
21754;SDS011;11039;50.028;19.938;2022-10-31T06:54:17;18.00;;;13.65;;
21754;SDS011;11039;50.028;19.938;2022-10-31T06:56:46;19.25;;;13.10;;
21754;SDS011;11039;50.028;19.938;2022-10-31T06:59:13;18.20;;;13.52;;
21754;SDS011;11039;50.028;19.938;2022-10-31T07:01:39;18.15;;;13.57;;
21754;SDS011;11039;50.028;19.938;2022-10-31T07:04:05;16.80;;;13.57;;
21754;SDS011;11039;50.028;19.938;2022-10-31T07:06:31;17.25;;;13.55;;
21754;SDS011;11039;50.028;19.938;2022-10-31T07:08:57;19.63;;;12.35;;
21754;SDS011;11039;50.028;19.938;2022-10-31T07:11:23;16.35;;;12.50;;
21754;SDS011;11039;50.028;19.938;2022-10-31T07:13:49;17.67;;;12.20;;
21754;SDS011;11039;50.028;19.938;2022-10-31T07:16:15;18.55;;;13.35;;
21754;SDS011;11039;50.028;19.938;2022-10-31T07:18:41;16.98;;;12.52;;
21754;SDS011;11039;50.028;19.938;2022-10-31T07:21:07;17.67;;;12.13;;
21754;SDS011;11039;50.028;19.938;2022-10-31T07:23:33;16.30;;;13.13;;
21754;SDS011;11039;50.028;19.938;2022-10-31T07:25:59;18.30;;;12.00;;
21754;SDS011;11039;50.028;19.938;2022-10-31T07:28:26;14.27;;;12.18;;
21754;SDS011;11039;50.028;19.938;2022-10-31T07:30:53;15.23;;;12.35;;
21754;SDS011;11039;50.028;19.938;2022-10-31T07:33:19;16.90;;;12.57;;
21754;SDS011;11039;50.028;19.938;2022-10-31T07:35:45;15.43;;;11.43;;
21754;SDS011;11039;50.028;19.938;2022-10-31T07:38:12;16.30;;;12.05;;
21754;SDS011;11039;50.028;19.938;2022-10-31T07:40:38;15.85;;;11.73;;
21754;SDS011;11039;50.028;19.938;2022-10-31T07:43:04;15.45;;;11.35;;
21754;SDS011;11039;50.028;19.938;2022-10-31T07:45:30;13.93;;;11.25;;
21754;SDS011;11039;50.028;19.938;2022-10-31T07:47:57;16.42;;;12.10;;
21754;SDS011;11039;50.028;19.938;2022-10-31T07:50:25;16.00;;;11.23;;
21754;SDS011;11039;50.028;19.938;2022-10-31T07:53:03;13.40;;;10.35;;
21754;SDS011;11039;50.028;19.938;2022-10-31T07:55:29;13.70;;;10.60;;
21754;SDS011;11039;50.028;19.938;2022-10-31T07:57:58;14.85;;;10.55;;
21754;SDS011;11039;50.028;19.938;2022-10-31T08:00:25;14.40;;;10.70;;
21754;SDS011;11039;50.028;19.938;2022-10-31T08:03:01;13.30;;;10.43;;
21754;SDS011;11039;50.028;19.938;2022-10-31T08:05:27;15.55;;;11.00;;
21754;SDS011;11039;50.028;19.938;2022-10-31T08:07:53;13.85;;;9.98;;
21754;SDS011;11039;50.028;19.938;2022-10-31T08:10:20;13.32;;;9.85;;
21754;SDS011;11039;50.028;19.938;2022-10-31T08:12:46;14.27;;;10.20;;
21754;SDS011;11039;50.028;19.938;2022-10-31T08:15:12;13.55;;;10.18;;
21754;SDS011;11039;50.028;19.938;2022-10-31T08:17:38;11.93;;;9.68;;
21754;SDS011;11039;50.028;19.938;2022-10-31T08:20:04;13.88;;;9.57;;
21754;SDS011;11039;50.028;19.938;2022-10-31T08:22:31;13.70;;;9.57;;
21754;SDS011;11039;50.028;19.938;2022-10-31T08:24:57;13.57;;;9.88;;
21754;SDS011;11039;50.028;19.938;2022-10-31T08:27:23;11.82;;;9.65;;
21754;SDS011;11039;50.028;19.938;2022-10-31T08:29:49;11.95;;;9.23;;
21754;SDS011;11039;50.028;19.938;2022-10-31T08:32:15;13.98;;;9.32;;
21754;SDS011;11039;50.028;19.938;2022-10-31T08:34:41;13.43;;;9.52;;
21754;SDS011;11039;50.028;19.938;2022-10-31T08:37:07;11.82;;;9.30;;
21754;SDS011;11039;50.028;19.938;2022-10-31T08:39:33;15.10;;;9.30;;
21754;SDS011;11039;50.028;19.938;2022-10-31T08:41:59;11.73;;;8.80;;
21754;SDS011;11039;50.028;19.938;2022-10-31T08:44:25;13.82;;;9.50;;
21754;SDS011;11039;50.028;19.938;2022-10-31T08:46:51;13.50;;;9.38;;
21754;SDS011;11039;50.028;19.938;2022-10-31T08:49:17;11.57;;;9.38;;
21754;SDS011;11039;50.028;19.938;2022-10-31T08:51:43;12.07;;;9.05;;
21754;SDS011;11039;50.028;19.938;2022-10-31T08:54:09;13.60;;;9.30;;
21754;SDS011;11039;50.028;19.938;2022-10-31T08:56:35;11.77;;;8.88;;
21754;SDS011;11039;50.028;19.938;2022-10-31T08:59:01;11.05;;;8.40;;
21754;SDS011;11039;50.028;19.938;2022-10-31T09:01:27;13.82;;;9.50;;
21754;SDS011;11039;50.028;19.938;2022-10-31T09:03:53;13.15;;;8.80;;
21754;SDS011;11039;50.028;19.938;2022-10-31T09:06:19;14.02;;;9.25;;
21754;SDS011;11039;50.028;19.938;2022-10-31T09:08:45;12.55;;;8.88;;
21754;SDS011;11039;50.028;19.938;2022-10-31T09:11:11;11.93;;;8.45;;
21754;SDS011;11039;50.028;19.938;2022-10-31T09:13:37;12.10;;;8.80;;
21754;SDS011;11039;50.028;19.938;2022-10-31T09:16:03;12.38;;;8.90;;
21754;SDS011;11039;50.028;19.938;2022-10-31T09:18:29;12.25;;;8.88;;
21754;SDS011;11039;50.028;19.938;2022-10-31T09:20:57;11.18;;;8.57;;
21754;SDS011;11039;50.028;19.938;2022-10-31T09:23:23;12.23;;;8.82;;
21754;SDS011;11039;50.028;19.938;2022-10-31T09:25:50;13.27;;;9.05;;
21754;SDS011;11039;50.028;19.938;2022-10-31T09:28:17;13.52;;;9.05;;
21754;SDS011;11039;50.028;19.938;2022-10-31T09:30:45;17.27;;;10.27;;
21754;SDS011;11039;50.028;19.938;2022-10-31T09:33:13;16.92;;;9.60;;
21754;SDS011;11039;50.028;19.938;2022-10-31T09:35:39;13.18;;;8.82;;
21754;SDS011;11039;50.028;19.938;2022-10-31T09:45:39;12.13;;;8.10;;
21754;SDS011;11039;50.028;19.938;2022-10-31T09:48:10;15.23;;;8.02;;
21754;SDS011;11039;50.028;19.938;2022-10-31T09:50:41;12.90;;;7.97;;
21754;SDS011;11039;50.028;19.938;2022-10-31T09:55:54;13.82;;;7.55;;
21754;SDS011;11039;50.028;19.938;2022-10-31T09:58:23;11.02;;;7.50;;
21754;SDS011;11039;50.028;19.938;2022-10-31T10:00:50;14.98;;;7.60;;
21754;SDS011;11039;50.028;19.938;2022-10-31T10:03:24;13.73;;;7.95;;
21754;SDS011;11039;50.028;19.938;2022-10-31T10:08:37;12.88;;;7.13;;
21754;SDS011;11039;50.028;19.938;2022-10-31T10:13:38;12.30;;;7.63;;
21754;SDS011;11039;50.028;19.938;2022-10-31T10:16:23;11.05;;;7.22;;
21754;SDS011;11039;50.028;19.938;2022-10-31T10:24:03;11.75;;;7.00;;
21754;SDS011;11039;50.028;19.938;2022-10-31T10:26:37;11.43;;;7.10;;
21754;SDS011;11039;50.028;19.938;2022-10-31T10:29:12;12.68;;;7.25;;
21754;SDS011;11039;50.028;19.938;2022-10-31T10:31:42;10.80;;;7.18;;
21754;SDS011;11039;50.028;19.938;2022-10-31T10:34:25;9.95;;;6.60;;
21754;SDS011;11039;50.028;19.938;2022-10-31T10:36:55;12.23;;;6.93;;
21754;SDS011;11039;50.028;19.938;2022-10-31T10:39:23;13.18;;;6.80;;
21754;SDS011;11039;50.028;19.938;2022-10-31T10:41:50;15.30;;;7.28;;
21754;SDS011;11039;50.028;19.938;2022-10-31T10:44:39;10.80;;;6.50;;
21754;SDS011;11039;50.028;19.938;2022-10-31T10:47:25;12.95;;;6.57;;
21754;SDS011;11039;50.028;19.938;2022-10-31T10:50:27;12.07;;;6.88;;
21754;SDS011;11039;50.028;19.938;2022-10-31T10:52:53;12.73;;;6.72;;
21754;SDS011;11039;50.028;19.938;2022-10-31T10:58:00;12.75;;;6.45;;
21754;SDS011;11039;50.028;19.938;2022-10-31T11:00:30;11.95;;;7.03;;
21754;SDS011;11039;50.028;19.938;2022-10-31T11:02:57;13.38;;;6.50;;
21754;SDS011;11039;50.028;19.938;2022-10-31T11:05:35;14.57;;;6.63;;
21754;SDS011;11039;50.028;19.938;2022-10-31T11:08:02;12.02;;;6.38;;
21754;SDS011;11039;50.028;19.938;2022-10-31T11:10:28;11.15;;;6.00;;
21754;SDS011;11039;50.028;19.938;2022-10-31T11:13:37;12.00;;;5.88;;
21754;SDS011;11039;50.028;19.938;2022-10-31T11:15:52;10.52;;;6.20;;
21754;SDS011;11039;50.028;19.938;2022-10-31T11:18:22;10.93;;;6.13;;
21754;SDS011;11039;50.028;19.938;2022-10-31T11:20:50;13.25;;;6.10;;
21754;SDS011;11039;50.028;19.938;2022-10-31T11:23:20;12.15;;;6.13;;
21754;SDS011;11039;50.028;19.938;2022-10-31T11:25:57;9.10;;;5.72;;
21754;SDS011;11039;50.028;19.938;2022-10-31T11:28:23;10.77;;;6.20;;
21754;SDS011;11039;50.028;19.938;2022-10-31T11:33:17;12.50;;;5.65;;
21754;SDS011;11039;50.028;19.938;2022-10-31T11:35:43;14.30;;;6.55;;
21754;SDS011;11039;50.028;19.938;2022-10-31T11:38:12;9.25;;;6.05;;
21754;SDS011;11039;50.028;19.938;2022-10-31T11:40:39;11.48;;;6.65;;
21754;SDS011;11039;50.028;19.938;2022-10-31T11:43:16;10.93;;;5.70;;
21754;SDS011;11039;50.028;19.938;2022-10-31T11:45:43;10.68;;;5.75;;
21754;SDS011;11039;50.028;19.938;2022-10-31T11:48:19;12.35;;;5.93;;
21754;SDS011;11039;50.028;19.938;2022-10-31T11:50:48;10.55;;;5.75;;
21754;SDS011;11039;50.028;19.938;2022-10-31T11:53:15;12.93;;;5.70;;
21754;SDS011;11039;50.028;19.938;2022-10-31T11:55:41;11.27;;;5.53;;
21754;SDS011;11039;50.028;19.938;2022-10-31T11:58:23;13.13;;;6.57;;
21754;SDS011;11039;50.028;19.938;2022-10-31T12:00:51;10.70;;;6.00;;
21754;SDS011;11039;50.028;19.938;2022-10-31T12:05:58;10.35;;;6.40;;
21754;SDS011;11039;50.028;19.938;2022-10-31T12:08:34;9.88;;;5.78;;
21754;SDS011;11039;50.028;19.938;2022-10-31T12:11:35;10.20;;;6.00;;
21754;SDS011;11039;50.028;19.938;2022-10-31T12:14:05;12.93;;;5.97;;
21754;SDS011;11039;50.028;19.938;2022-10-31T12:19:12;14.40;;;6.50;;
21754;SDS011;11039;50.028;19.938;2022-10-31T12:27:26;9.15;;;5.93;;
21754;SDS011;11039;50.028;19.938;2022-10-31T12:37:34;12.13;;;6.20;;
21754;SDS011;11039;50.028;19.938;2022-10-31T12:53:02;10.55;;;5.78;;
21754;SDS011;11039;50.028;19.938;2022-10-31T12:58:01;11.45;;;5.63;;
21754;SDS011;11039;50.028;19.938;2022-10-31T13:00:29;12.07;;;6.75;;
21754;SDS011;11039;50.028;19.938;2022-10-31T13:05:33;13.57;;;5.90;;
21754;SDS011;11039;50.028;19.938;2022-10-31T13:08:09;12.50;;;6.35;;
21754;SDS011;11039;50.028;19.938;2022-10-31T13:10:50;12.98;;;6.25;;
21754;SDS011;11039;50.028;19.938;2022-10-31T13:13:24;14.30;;;6.22;;
21754;SDS011;11039;50.028;19.938;2022-10-31T13:15:56;12.45;;;6.28;;
21754;SDS011;11039;50.028;19.938;2022-10-31T13:18:30;15.48;;;7.07;;
21754;SDS011;11039;50.028;19.938;2022-10-31T13:20:58;15.10;;;6.72;;
21754;SDS011;11039;50.028;19.938;2022-10-31T13:23:29;13.45;;;7.32;;
21754;SDS011;11039;50.028;19.938;2022-10-31T13:25:57;12.13;;;6.75;;
21754;SDS011;11039;50.028;19.938;2022-10-31T13:28:29;12.52;;;6.70;;
21754;SDS011;11039;50.028;19.938;2022-10-31T13:30:56;11.90;;;6.82;;
21754;SDS011;11039;50.028;19.938;2022-10-31T13:33:25;19.67;;;7.25;;
21754;SDS011;11039;50.028;19.938;2022-10-31T13:38:40;13.35;;;6.60;;
21754;SDS011;11039;50.028;19.938;2022-10-31T13:48:58;12.00;;;6.85;;
21754;SDS011;11039;50.028;19.938;2022-10-31T13:51:29;16.88;;;7.60;;
21754;SDS011;11039;50.028;19.938;2022-10-31T13:56:22;14.82;;;6.60;;
21754;SDS011;11039;50.028;19.938;2022-10-31T14:01:24;14.40;;;6.68;;
21754;SDS011;11039;50.028;19.938;2022-10-31T14:06:22;13.82;;;6.97;;
21754;SDS011;11039;50.028;19.938;2022-10-31T14:08:50;12.57;;;6.05;;
21754;SDS011;11039;50.028;19.938;2022-10-31T14:11:19;15.55;;;7.28;;
21754;SDS011;11039;50.028;19.938;2022-10-31T14:13:47;14.50;;;7.38;;
21754;SDS011;11039;50.028;19.938;2022-10-31T14:16:29;15.50;;;7.38;;
21754;SDS011;11039;50.028;19.938;2022-10-31T14:23:51;17.08;;;7.68;;
21754;SDS011;11039;50.028;19.938;2022-10-31T14:28:47;19.00;;;7.78;;
21754;SDS011;11039;50.028;19.938;2022-10-31T14:33:51;14.85;;;7.88;;
21754;SDS011;11039;50.028;19.938;2022-10-31T14:36:19;14.52;;;7.82;;
21754;SDS011;11039;50.028;19.938;2022-10-31T14:44:21;15.88;;;7.55;;
21754;SDS011;11039;50.028;19.938;2022-10-31T14:46:57;16.33;;;7.47;;
21754;SDS011;11039;50.028;19.938;2022-10-31T14:49:39;18.25;;;7.68;;
21754;SDS011;11039;50.028;19.938;2022-10-31T14:52:10;15.68;;;7.75;;
21754;SDS011;11039;50.028;19.938;2022-10-31T14:54:39;15.45;;;7.78;;
21754;SDS011;11039;50.028;19.938;2022-10-31T14:57:06;15.25;;;7.82;;
21754;SDS011;11039;50.028;19.938;2022-10-31T14:59:35;18.65;;;8.40;;
21754;SDS011;11039;50.028;19.938;2022-10-31T15:02:08;13.70;;;7.40;;
21754;SDS011;11039;50.028;19.938;2022-10-31T15:04:35;17.08;;;7.70;;
21754;SDS011;11039;50.028;19.938;2022-10-31T15:07:04;18.58;;;8.52;;
21754;SDS011;11039;50.028;19.938;2022-10-31T15:09:33;14.70;;;8.15;;
21754;SDS011;11039;50.028;19.938;2022-10-31T15:12:00;15.40;;;8.13;;
21754;SDS011;11039;50.028;19.938;2022-10-31T15:14:27;15.82;;;7.47;;
21754;SDS011;11039;50.028;19.938;2022-10-31T15:16:55;14.07;;;7.75;;
21754;SDS011;11039;50.028;19.938;2022-10-31T15:19:25;16.77;;;7.82;;
21754;SDS011;11039;50.028;19.938;2022-10-31T15:21:52;19.13;;;7.82;;
21754;SDS011;11039;50.028;19.938;2022-10-31T15:24:19;17.23;;;7.32;;
21754;SDS011;11039;50.028;19.938;2022-10-31T15:26:47;17.90;;;8.18;;
21754;SDS011;11039;50.028;19.938;2022-10-31T15:29:15;16.95;;;8.13;;
21754;SDS011;11039;50.028;19.938;2022-10-31T15:31:49;20.42;;;8.40;;
21754;SDS011;11039;50.028;19.938;2022-10-31T15:34:16;14.93;;;7.95;;
21754;SDS011;11039;50.028;19.938;2022-10-31T15:36:47;17.17;;;8.20;;
21754;SDS011;11039;50.028;19.938;2022-10-31T15:39:14;16.83;;;8.23;;
21754;SDS011;11039;50.028;19.938;2022-10-31T15:41:51;14.73;;;8.02;;
21754;SDS011;11039;50.028;19.938;2022-10-31T15:44:24;15.60;;;8.43;;
21754;SDS011;11039;50.028;19.938;2022-10-31T15:47:01;14.43;;;7.93;;
21754;SDS011;11039;50.028;19.938;2022-10-31T15:49:35;16.75;;;8.43;;
21754;SDS011;11039;50.028;19.938;2022-10-31T15:52:02;16.02;;;7.85;;
21754;SDS011;11039;50.028;19.938;2022-10-31T15:54:29;18.70;;;8.32;;
21754;SDS011;11039;50.028;19.938;2022-10-31T15:56:55;20.27;;;8.32;;
21754;SDS011;11039;50.028;19.938;2022-10-31T15:59:23;13.65;;;8.20;;
21754;SDS011;11039;50.028;19.938;2022-10-31T16:02:00;18.15;;;7.43;;
21754;SDS011;11039;50.028;19.938;2022-10-31T16:04:26;18.27;;;7.72;;
21754;SDS011;11039;50.028;19.938;2022-10-31T16:06:59;20.40;;;8.27;;
21754;SDS011;11039;50.028;19.938;2022-10-31T16:09:26;22.80;;;8.30;;
21754;SDS011;11039;50.028;19.938;2022-10-31T16:11:52;16.90;;;7.57;;
21754;SDS011;11039;50.028;19.938;2022-10-31T16:14:22;16.38;;;7.18;;
21754;SDS011;11039;50.028;19.938;2022-10-31T16:16:49;18.25;;;8.35;;
21754;SDS011;11039;50.028;19.938;2022-10-31T16:21:53;19.92;;;8.75;;
21754;SDS011;11039;50.028;19.938;2022-10-31T16:24:29;17.95;;;8.50;;
21754;SDS011;11039;50.028;19.938;2022-10-31T16:27:06;21.58;;;8.77;;
21754;SDS011;11039;50.028;19.938;2022-10-31T16:29:34;17.83;;;8.50;;
21754;SDS011;11039;50.028;19.938;2022-10-31T16:32:01;18.52;;;9.20;;
21754;SDS011;11039;50.028;19.938;2022-10-31T16:34:27;20.38;;;8.80;;
21754;SDS011;11039;50.028;19.938;2022-10-31T16:36:53;21.80;;;8.52;;